Time;durP1;ratioP1;P1;durP2;ratioP2;P2;SDS_P1;SDS_P2;PMS_P1;PMS_P2;Temp;Humidity;BMP_temperature;BMP_pressure;BME280_temperature;BME280_humidity;BME280_pressure;Samples;Min_cycle;Max_cycle;Signal;HPM_P1;HPM_P2
2023/08/02 05:18:06;;;;;;;;;;;;;;;5.24;100.00;98131.13;5046987;28;19951;-89
2023/08/02 05:20:32;;;;;;;;;;;;;;;5.19;100.00;98132.28;5047332;28;20020;-87
2023/08/02 05:22:58;;;;;;;;;;;;;;;5.23;100.00;98118.06;5047800;28;20023;-86
2023/08/02 05:25:26;;;;;;;;;;;;;;;5.23;100.00;98118.06;5048278;28;19978;-86
2023/08/02 05:27:51;;;;;;;;;;;;;;;5.25;100.00;98103.94;5071462;28;19917;-87
2023/08/02 05:30:16;;;;;;;;;;;;;;;5.22;100.00;98100.63;5046426;28;19924;-87
2023/08/02 05:32:42;;;;;;;;;;;;;;;5.25;100.00;98101.31;5048212;28;19995;-87
2023/08/02 05:35:07;;;;;;;;;;;;;;;5.34;100.00;98092.13;5063429;28;20050;-86
2023/08/02 05:37:32;;;;;;;;;;;;;;;5.32;100.00;98091.38;5046155;28;19917;-86
2023/08/02 05:40:00;;;;;;;;;;;;;;;5.33;100.00;98079.06;5045161;28;19987;-89
2023/08/02 05:42:25;;;;;;;;;;;;;;;5.40;100.00;98073.47;5043129;28;19921;-87
2023/08/02 05:44:50;;;;;;;;;;;;;;;5.40;100.00;98070.00;5042660;28;20000;-86
2023/08/02 05:47:16;;;;;;;;;;;;;;;5.40;100.00;98062.94;5045098;28;19936;-87
2023/08/02 05:49:41;;;;;;;;;;;;;;;5.35;100.00;98054.44;5043363;28;19924;-87
2023/08/02 05:52:06;;;;;;;;;;;;;;;5.34;100.00;98052.75;5044349;28;20013;-86
2023/08/02 05:54:31;;;;;;;;;;;;;;;5.36;100.00;98053.53;5044317;28;19917;-86
2023/08/02 05:56:57;;;;;;;;;;;;;;;5.40;100.00;98051.59;5042949;28;19928;-86
2023/08/02 05:59:22;;;;;;;;;;;;;;;5.43;100.00;98044.41;5041641;28;19917;-86
2023/08/02 06:01:47;;;;;;;;;;;;;;;5.41;100.00;98040.19;5043437;28;20004;-87
2023/08/02 06:04:13;;;;;;;;;;;;;;;5.41;100.00;98038.41;5067946;28;20004;-84
2023/08/02 06:06:38;;;;;;;;;;;;;;;5.48;100.00;98033.69;5043538;28;19943;-82
2023/08/02 06:09:03;;;;;;;;;;;;;;;5.44;100.00;98025.13;5044251;28;20284;-85
2023/08/02 06:11:28;;;;;;;;;;;;;;;5.37;100.00;98014.97;5042840;28;20011;-85
2023/08/02 06:13:54;;;;;;;;;;;;;;;5.42;100.00;97999.84;5044048;28;19917;-85
2023/08/02 06:16:19;;;;;;;;;;;;;;;5.33;100.00;97993.28;5040967;28;20322;-85
2023/08/02 06:18:44;;;;;;;;;;;;;;;5.31;100.00;97981.97;5043927;28;19952;-85
2023/08/02 06:21:10;;;;;;;;;;;;;;;5.40;100.00;97985.94;5044222;28;19943;-86
2023/08/02 06:23:35;;;;;;;;;;;;;;;5.51;100.00;97985.41;5042382;28;20352;-86
2023/08/02 06:26:00;;;;;;;;;;;;;;;5.49;100.00;97984.59;5043528;28;19952;-86
2023/08/02 06:28:25;;;;;;;;;;;;;;;5.48;100.00;97975.03;5044248;28;19963;-87
2023/08/02 06:30:51;;;;;;;;;;;;;;;5.48;100.00;97960.13;5042949;28;19920;-86
2023/08/02 06:33:16;;;;;;;;;;;;;;;5.52;100.00;97961.69;5043899;28;19917;-86
2023/08/02 06:35:41;;;;;;;;;;;;;;;5.56;100.00;97957.94;5043483;28;19913;-85
2023/08/02 06:38:07;;;;;;;;;;;;;;;5.50;100.00;97950.38;5043986;28;19917;-86
2023/08/02 06:40:32;;;;;;;;;;;;;;;5.44;100.00;97956.81;5043974;28;19917;-86
2023/08/02 06:42:57;;;;;;;;;;;;;;;5.39;100.00;97950.94;5044472;28;20355;-85
2023/08/02 06:45:23;;;;;;;;;;;;;;;5.42;100.00;97944.66;5041724;28;19923;-86
2023/08/02 06:47:48;;;;;;;;;;;;;;;5.54;100.00;97951.94;5043812;28;20338;-86
2023/08/02 06:50:13;;;;;;;;;;;;;;;5.53;100.00;97946.75;5042974;28;19917;-86
2023/08/02 06:52:38;;;;;;;;;;;;;;;5.49;100.00;97935.56;5042792;28;19921;-86
2023/08/02 06:55:04;;;;;;;;;;;;;;;5.57;100.00;97937.81;5043079;28;20003;-86
2023/08/02 06:57:31;;;;;;;;;;;;;;;5.50;100.00;97925.91;5043546;28;20379;-85
2023/08/02 06:59:56;;;;;;;;;;;;;;;5.49;100.00;97929.44;5041914;28;19917;-86
2023/08/02 07:02:22;;;;;;;;;;;;;;;5.41;100.00;97929.84;5042970;28;19925;-86
2023/08/02 07:04:47;;;;;;;;;;;;;;;5.51;100.00;97933.69;5042949;28;19921;-86
2023/08/02 07:07:12;;;;;;;;;;;;;;;5.37;100.00;97939.66;5043499;28;19943;-86
2023/08/02 07:09:37;;;;;;;;;;;;;;;5.31;100.00;97926.00;5042905;28;19920;-86
2023/08/02 07:12:03;;;;;;;;;;;;;;;5.33;100.00;97916.25;5042733;28;19985;-87
2023/08/02 07:14:28;;;;;;;;;;;;;;;5.39;100.00;97913.31;5065166;28;20286;-87
2023/08/02 07:16:53;;;;;;;;;;;;;;;5.52;100.00;97909.13;5043247;28;20020;-86
2023/08/02 07:19:18;;;;;;;;;;;;;;;5.44;100.00;97904.28;5042779;28;19964;-86
2023/08/02 07:21:44;;;;;;;;;;;;;;;5.43;100.00;97891.22;5042794;28;20344;-85
2023/08/02 07:24:09;;;;;;;;;;;;;;;5.45;100.00;97884.09;5042572;28;20312;-86
2023/08/02 07:26:34;;;;;;;;;;;;;;;5.40;100.00;97884.34;5041357;28;19921;-86
2023/08/02 07:28:59;;;;;;;;;;;;;;;5.41;100.00;97890.47;5042103;28;19924;-86
2023/08/02 07:31:25;;;;;;;;;;;;;;;5.42;100.00;97887.72;5040473;28;19925;-86
2023/08/02 07:33:50;;;;;;;;;;;;;;;5.34;100.00;97889.06;5042737;28;20371;-86
2023/08/02 07:36:16;;;;;;;;;;;;;;;5.44;100.00;97887.66;5041078;28;19952;-85
2023/08/02 07:38:43;;;;;;;;;;;;;;;5.34;100.00;97884.66;5042755;28;19921;-86
2023/08/02 07:41:08;;;;;;;;;;;;;;;5.20;100.00;97882.75;5042551;28;19970;-86
2023/08/02 07:43:33;;;;;;;;;;;;;;;5.30;100.00;97872.63;5042820;28;19917;-86
2023/08/02 07:45:59;;;;;;;;;;;;;;;5.27;100.00;97863.13;5041116;28;20318;-87
2023/08/02 07:48:24;;;;;;;;;;;;;;;5.30;100.00;97877.88;5042004;28;19991;-85
2023/08/02 07:50:49;;;;;;;;;;;;;;;15.00;100.00;97859.31;5041435;28;20379;-88
2023/08/02 07:53:17;;;;;;;;;;;;;;;17.73;100.00;97834.75;5042991;28;19974;-89
2023/08/02 07:55:58;;;;;;;;;;;;;;;17.24;100.00;97824.53;5044163;28;19924;-92
2023/08/02 07:58:26;;;;;;;;;;;;;;;18.40;100.00;97815.31;5041630;28;19917;-92
2023/08/02 08:00:52;;;;;;;;;;;;;;;17.76;100.00;97813.00;5040784;28;20051;-86
2023/08/02 08:03:20;;;;;;;;;;;;;;;17.72;100.00;97814.31;5042221;28;20391;-88
2023/08/02 08:05:47;;;;;;;;;;;;;;;14.74;100.00;97821.69;5040443;28;19930;-91
2023/08/02 08:08:13;;;;;;;;;;;;;;;12.31;100.00;97822.91;5043221;28;20322;-91
2023/08/02 08:10:38;;;;;;;;;;;;;;;11.09;100.00;97823.63;5043339;28;19920;-91
2023/08/02 08:13:03;;;;;;;;;;;;;;;10.31;100.00;97831.09;5041284;28;19943;-91
2023/08/02 08:15:28;;;;;;;;;;;;;;;9.93;100.00;97826.75;5041723;28;19917;-88
2023/08/02 08:17:57;;;;;;;;;;;;;;;9.58;100.00;97822.16;5042477;28;19976;-92
2023/08/02 08:23:16;;;;;;;;;;;;;;;9.22;100.00;97817.63;5036814;28;19921;-89
2023/08/02 08:25:41;;;;;;;;;;;;;;;9.05;100.00;97801.13;5041194;28;20334;-91
2023/08/02 08:28:07;;;;;;;;;;;;;;;8.98;100.00;97804.28;5042294;28;20012;-87
2023/08/02 08:30:32;;;;;;;;;;;;;;;8.86;100.00;97805.97;5039166;28;20012;-91
2023/08/02 08:32:57;;;;;;;;;;;;;;;8.64;100.00;97812.69;5041723;28;19966;-91
2023/08/02 08:35:23;;;;;;;;;;;;;;;8.71;100.00;97802.56;5040836;28;19939;-87
2023/08/02 08:37:51;;;;;;;;;;;;;;;8.66;100.00;97794.09;5041449;28;19924;-93
2023/08/02 08:40:20;;;;;;;;;;;;;;;8.65;100.00;97795.91;5041416;28;19967;-91
2023/08/02 08:42:53;;;;;;;;;;;;;;;8.52;100.00;97790.59;5040420;28;20028;-90
2023/08/02 08:45:19;;;;;;;;;;;;;;;8.56;100.00;97795.69;5039055;28;20008;-92
2023/08/02 08:47:52;;;;;;;;;;;;;;;8.47;100.00;97787.41;5041053;28;19917;-92
2023/08/02 08:50:19;;;;;;;;;;;;;;;8.35;100.00;97781.09;5042337;28;19924;-92
2023/08/02 08:52:46;;;;;;;;;;;;;;;8.31;100.00;97784.91;5040609;28;19917;-89
2023/08/02 08:55:21;;;;;;;;;;;;;;;8.41;100.00;97777.22;5041485;28;19928;-92
2023/08/02 08:57:49;;;;;;;;;;;;;;;8.29;100.00;97776.22;5065185;28;20380;-93
2023/08/02 09:00:17;;;;;;;;;;;;;;;8.26;100.00;97770.31;5040071;28;20322;-92
2023/08/02 09:02:56;;;;;;;;;;;;;;;;;;;;;
2023/08/02 09:05:22;;;;;;;;;;;;;;;8.32;100.00;97765.47;5042067;28;19916;-92
2023/08/02 09:07:50;;;;;;;;;;;;;;;8.35;100.00;97769.72;5040583;28;20028;-91
2023/08/02 09:10:15;;;;;;;;;;;;;;;8.18;100.00;97766.41;5040925;28;19924;-91
2023/08/02 09:12:59;;;;;;;;;;;;;;;8.09;100.00;97752.94;5040805;28;20395;-93
2023/08/02 09:15:24;;;;;;;;;;;;;;;8.11;100.00;97758.97;5042322;28;20366;-92
2023/08/02 09:17:56;;;;;;;;;;;;;;;8.15;100.00;97760.44;5044477;28;20001;-92
2023/08/02 09:20:25;;;;;;;;;;;;;;;8.08;100.00;97759.19;5044916;28;20592;-92
2023/08/02 09:23:00;;;;;;;;;;;;;;;8.16;100.00;97755.06;5045534;28;19971;-91
2023/08/02 09:25:54;;;;;;;;;;;;;;;8.06;100.00;97748.72;5068235;28;19921;-92
2023/08/02 09:28:38;;;;;;;;;;;;;;;8.05;100.00;97749.66;5045152;28;20372;-91
2023/08/02 09:31:34;;;;;;;;;;;;;;;8.08;100.00;97749.47;5042115;28;20363;-92
2023/08/02 09:34:21;;;;;;;;;;;;;;;8.20;100.00;97750.47;5044699;28;20007;-92
2023/08/02 09:36:59;;;;;;;;;;;;;;;8.02;100.00;97739.31;5043902;28;19960;-91
2023/08/02 09:39:32;;;;;;;;;;;;;;;8.04;100.00;97752.41;5043622;28;19921;-91
2023/08/02 09:42:28;;;;;;;;;;;;;;;8.03;100.00;97743.66;5043467;28;19959;-91
2023/08/02 09:45:12;;;;;;;;;;;;;;;;;;;;;
2023/08/02 09:47:59;;;;;;;;;;;;;;;8.15;100.00;97748.13;5044868;28;19927;-90
2023/08/02 09:50:30;;;;;;;;;;;;;;;8.04;100.00;97737.44;5043372;28;20013;-92
2023/08/02 09:53:15;;;;;;;;;;;;;;;8.03;100.00;97732.25;5044643;28;19921;-91
2023/08/02 09:55:48;;;;;;;;;;;;;;;7.97;100.00;97736.13;5043386;28;19916;-92
2023/08/02 09:58:32;;;;;;;;;;;;;;;8.02;100.00;97739.31;5043387;28;19929;-91
2023/08/02 10:01:03;;;;;;;;;;;;;;;7.96;100.00;97742.34;5041710;28;19964;-93
2023/08/02 10:04:01;;;;;;;;;;;;;;;;;;;;;
2023/08/02 10:09:41;;;;;;;;;;;;;;;7.98;100.00;97736.03;5018484;28;20295;-92
2023/08/02 10:12:08;;;;;;;;;;;;;;;8.12;100.00;97737.78;5067183;28;19975;-87
2023/08/02 10:14:36;;;;;;;;;;;;;;;8.10;100.00;97734.38;5043752;28;19916;-91
2023/08/02 10:17:02;;;;;;;;;;;;;;;7.97;100.00;97729.06;5043355;28;19921;-88
2023/08/02 10:19:41;;;;;;;;;;;;;;;8.12;100.00;97736.91;5043667;28;19928;-91
2023/08/02 10:22:36;;;;;;;;;;;;;;;8.00;100.00;97718.31;5043215;28;19921;-92
2023/08/02 10:28:33;;;;;;;;;;;;;;;;;;;;;
2023/08/02 10:34:22;;;;;;;;;;;;;;;7.99;100.00;97727.19;5034911;28;19917;-89
2023/08/02 10:36:55;;;;;;;;;;;;;;;7.90;100.00;97734.84;5042079;28;19921;-87
2023/08/02 10:39:40;;;;;;;;;;;;;;;7.79;100.00;97719.72;5042660;28;19921;-90
2023/08/02 10:42:05;;;;;;;;;;;;;;;7.91;100.00;97720.69;5042098;28;20303;-85
2023/08/02 10:44:41;;;;;;;;;;;;;;;;;;;;;
2023/08/02 10:47:25;;;;;;;;;;;;;;;7.96;100.00;97730.00;5044044;28;19927;-89
2023/08/02 10:49:51;;;;;;;;;;;;;;;7.97;100.00;97728.22;5042305;28;20280;-89
2023/08/02 10:52:38;;;;;;;;;;;;;;;7.91;100.00;97715.41;5043274;28;19971;-89
2023/08/02 10:55:04;;;;;;;;;;;;;;;7.85;100.00;97723.72;5043766;28;19927;-91
2023/08/02 10:57:29;;;;;;;;;;;;;;;7.99;100.00;97723.69;5059616;28;20484;-88
2023/08/02 11:00:01;;;;;;;;;;;;;;;7.95;100.00;97727.47;5040543;28;19924;-92
2023/08/02 11:02:43;;;;;;;;;;;;;;;7.96;100.00;97726.50;5043600;28;20017;-92
2023/08/02 11:05:11;;;;;;;;;;;;;;;8.04;100.00;97734.78;5043383;28;19917;-93
2023/08/02 11:07:56;;;;;;;;;;;;;;;8.08;100.00;97716.97;5043529;28;19938;-92
2023/08/02 11:10:21;;;;;;;;;;;;;;;8.07;100.00;97713.47;5042379;28;19924;-91
2023/08/02 11:12:58;;;;;;;;;;;;;;;7.99;100.00;97718.41;5041861;28;20008;-91
2023/08/02 11:15:24;;;;;;;;;;;;;;;7.96;100.00;97727.38;5041772;28;19963;-90
2023/08/02 11:18:07;;;;;;;;;;;;;;;7.94;100.00;97715.22;5043009;28;20345;-90
2023/08/02 11:20:46;;;;;;;;;;;;;;;8.07;100.00;97702.09;5041490;28;19921;-91
2023/08/02 11:23:21;;;;;;;;;;;;;;;8.08;100.00;97694.06;5041172;28;19925;-83
2023/08/02 11:25:47;;;;;;;;;;;;;;;8.01;100.00;97687.53;5045337;28;19967;-85
2023/08/02 11:28:16;;;;;;;;;;;;;;;7.97;100.00;97691.28;5043575;28;19928;-91
2023/08/02 11:30:44;;;;;;;;;;;;;;;7.95;100.00;97687.91;5041535;28;19956;-91
2023/08/02 11:33:11;;;;;;;;;;;;;;;7.84;100.00;97685.97;5042841;28;19920;-86
2023/08/02 11:35:36;;;;;;;;;;;;;;;7.98;100.00;97671.91;5042638;28;19913;-87
2023/08/02 11:38:03;;;;;;;;;;;;;;;7.99;100.00;97679.72;5040415;28;19920;-89
2023/08/02 11:40:36;;;;;;;;;;;;;;;7.91;100.00;97662.69;5043524;28;19925;-90
2023/08/02 11:43:01;;;;;;;;;;;;;;;7.96;100.00;97663.22;5041316;28;20334;-87
2023/08/02 11:45:30;;;;;;;;;;;;;;;7.97;100.00;97672.84;5040905;28;19917;-89
2023/08/02 11:47:55;;;;;;;;;;;;;;;8.03;100.00;97669.78;5041259;28;19917;-86
2023/08/02 11:50:25;;;;;;;;;;;;;;;8.12;100.00;97663.06;5042157;28;19924;-86
2023/08/02 11:52:50;;;;;;;;;;;;;;;8.01;100.00;97666.41;5065585;28;20315;-86
2023/08/02 11:55:23;;;;;;;;;;;;;;;7.98;100.00;97664.81;5041291;28;19917;-85
2023/08/02 11:57:51;;;;;;;;;;;;;;;7.90;100.00;97659.22;5045052;28;19960;-91
2023/08/02 12:00:19;;;;;;;;;;;;;;;7.98;100.00;97656.91;5042362;28;19940;-91
2023/08/02 12:02:46;;;;;;;;;;;;;;;8.06;100.00;97647.63;5040142;28;20351;-91
2023/08/02 12:05:21;;;;;;;;;;;;;;;8.25;100.00;97657.78;5041371;28;20015;-90
2023/08/02 12:07:48;;;;;;;;;;;;;;;8.02;100.00;97652.28;5043894;28;20339;-91
2023/08/02 12:10:32;;;;;;;;;;;;;;;8.15;100.00;97644.38;5045218;28;19963;-92
2023/08/02 12:13:24;;;;;;;;;;;;;;;8.15;100.00;97621.50;5041234;28;19975;-93
2023/08/02 12:19:16;;;;;;;;;;;;;;;8.12;100.00;97634.03;5046871;28;19936;-92
2023/08/02 12:21:47;;;;;;;;;;;;;;;7.96;100.00;97618.38;5039571;28;20287;-91
2023/08/02 12:24:54;;;;;;;;;;;;;;;7.97;100.00;97617.44;5029291;28;20000;-91
2023/08/02 12:33:44;;;;;;;;;;;;;;;7.96;100.00;97636.84;4969211;28;20559;-92
2023/08/02 12:36:09;;;;;;;;;;;;;;;7.93;100.00;97631.78;4969960;28;19957;-90
2023/08/02 12:38:56;;;;;;;;;;;;;;;8.18;100.00;97621.31;4951651;28;19962;-91
2023/08/02 12:41:21;;;;;;;;;;;;;;;8.25;100.00;97628.78;4964344;28;20369;-92
2023/08/02 12:43:46;;;;;;;;;;;;;;;8.29;100.00;97628.47;4962910;28;20017;-85
2023/08/02 12:46:14;;;;;;;;;;;;;;;8.06;100.00;97627.41;4982606;28;19932;-89
2023/08/02 12:48:40;;;;;;;;;;;;;;;8.03;100.00;97624.97;5033252;28;19921;-90
2023/08/02 12:54:16;;;;;;;;;;;;;;;8.14;100.00;97609.25;5047096;28;19921;-88
2023/08/02 12:59:27;;;;;;;;;;;;;;;7.99;100.00;97605.00;5023539;28;20390;-85
2023/08/02 13:01:53;;;;;;;;;;;;;;;8.37;100.00;97588.38;5034409;28;20008;-88
2023/08/02 13:04:34;;;;;;;;;;;;;;;;;;;;;
2023/08/02 13:10:11;;;;;;;;;;;;;;;8.50;100.00;97636.78;4984663;28;19973;-91
2023/08/02 13:12:37;;;;;;;;;;;;;;;8.21;100.00;97624.66;5043450;28;19920;-93
2023/08/02 13:15:02;;;;;;;;;;;;;;;8.52;100.00;97608.47;5054897;28;19955;-94
2023/08/02 13:17:29;;;;;;;;;;;;;;;8.52;100.00;97607.59;5053126;28;19960;-88
2023/08/02 13:19:54;;;;;;;;;;;;;;;9.01;100.00;97608.63;5050469;28;20388;-88
2023/08/02 13:22:19;;;;;;;;;;;;;;;9.00;100.00;97614.84;5028999;28;19925;-83
2023/08/02 13:24:45;;;;;;;;;;;;;;;9.02;100.00;97600.59;5049278;28;20024;-89
2023/08/02 13:27:10;;;;;;;;;;;;;;;8.97;100.00;97592.16;5035226;28;19955;-92
2023/08/02 13:29:36;;;;;;;;;;;;;;;9.08;100.00;97588.75;5034249;28;19921;-89
2023/08/02 13:32:01;;;;;;;;;;;;;;;9.30;100.00;97577.44;5044805;28;20407;-92
2023/08/02 13:34:26;;;;;;;;;;;;;;;8.95;100.00;97566.78;5050199;28;20542;-92
2023/08/02 13:36:51;;;;;;;;;;;;;;;8.66;100.00;97596.09;5049150;28;19928;-93
2023/08/02 13:39:19;;;;;;;;;;;;;;;8.45;100.00;97579.97;5049332;28;19932;-94
2023/08/02 13:41:44;;;;;;;;;;;;;;;8.62;100.00;97561.16;5038256;28;20055;-90
2023/08/02 13:44:14;;;;;;;;;;;;;;;9.57;100.00;97561.38;5051602;28;19940;-90
2023/08/02 13:46:40;;;;;;;;;;;;;;;8.39;100.00;97540.75;5026320;28;19917;-92
2023/08/02 13:49:05;;;;;;;;;;;;;;;8.73;100.00;97537.47;5052564;28;20394;-93
2023/08/02 13:51:33;;;;;;;;;;;;;;;8.69;100.00;97556.28;5041646;28;19921;-92
2023/08/02 13:53:58;;;;;;;;;;;;;;;8.57;100.00;97600.22;5036104;28;19924;-88
2023/08/02 13:56:24;;;;;;;;;;;;;;;8.55;100.00;97602.13;5029937;28;20047;-91
2023/08/02 13:58:49;;;;;;;;;;;;;;;8.28;100.00;97573.16;5044963;28;19917;-90
2023/08/02 14:01:15;;;;;;;;;;;;;;;8.31;100.00;97594.06;5026227;28;20360;-87
2023/08/02 14:03:42;;;;;;;;;;;;;;;8.41;100.00;97652.31;5035104;28;19927;-90
2023/08/02 14:06:08;;;;;;;;;;;;;;;8.80;100.00;97632.94;5026665;28;19923;-89
2023/08/02 14:08:35;;;;;;;;;;;;;;;8.79;100.00;97619.84;5046332;28;19931;-88
2023/08/02 14:11:01;;;;;;;;;;;;;;;8.58;100.00;97616.91;5047420;28;19995;-88
2023/08/02 14:13:26;;;;;;;;;;;;;;;8.62;100.00;97606.03;5043942;28;19952;-89
2023/08/02 14:15:51;;;;;;;;;;;;;;;8.44;100.00;97618.72;5026194;28;20002;-89
2023/08/02 14:18:17;;;;;;;;;;;;;;;8.36;100.00;97597.25;5035103;28;20402;-87
2023/08/02 14:20:43;;;;;;;;;;;;;;;8.16;100.00;97599.44;5052438;28;19924;-92
2023/08/02 14:23:09;;;;;;;;;;;;;;;8.56;100.00;97597.69;5049998;28;19925;-91
2023/08/02 14:25:34;;;;;;;;;;;;;;;8.59;100.00;97584.28;5050665;28;19927;-88
2023/08/02 14:28:00;;;;;;;;;;;;;;;8.30;100.00;97579.19;5058377;28;19920;-87
2023/08/02 14:30:25;;;;;;;;;;;;;;;8.28;100.00;97583.72;5045495;28;20044;-91
2023/08/02 14:32:50;;;;;;;;;;;;;;;8.26;100.00;97573.25;5065047;28;20011;-89
2023/08/02 14:35:16;;;;;;;;;;;;;;;8.30;100.00;97582.66;5063401;28;20039;-88
2023/08/02 14:37:41;;;;;;;;;;;;;;;8.32;100.00;97577.28;5045123;28;20374;-89
2023/08/02 14:40:07;;;;;;;;;;;;;;;8.19;100.00;97558.81;5045000;28;19921;-89
2023/08/02 14:42:32;;;;;;;;;;;;;;;8.00;100.00;97565.34;5044531;28;19917;-90
2023/08/02 14:44:58;;;;;;;;;;;;;;;8.38;100.00;97547.84;5043199;28;19924;-89
2023/08/02 14:47:23;;;;;;;;;;;;;;;8.42;100.00;97561.66;5050215;28;20421;-90
2023/08/02 14:49:48;;;;;;;;;;;;;;;8.08;100.00;97554.28;5053454;28;20019;-89
2023/08/02 14:52:13;;;;;;;;;;;;;;;8.00;100.00;97546.03;5050940;28;19921;-89
2023/08/02 14:54:39;;;;;;;;;;;;;;;7.98;100.00;97556.69;5046778;28;20325;-89
2023/08/02 14:57:05;;;;;;;;;;;;;;;7.98;100.00;97535.59;5045784;28;20364;-89
2023/08/02 14:59:31;;;;;;;;;;;;;;;7.92;100.00;97535.19;5044627;28;20275;-89
2023/08/02 15:01:56;;;;;;;;;;;;;;;7.98;100.00;97524.22;5046288;28;19920;-90
2023/08/02 15:04:21;;;;;;;;;;;;;;;7.94;100.00;97520.09;5053962;28;19963;-90
2023/08/02 15:06:47;;;;;;;;;;;;;;;8.01;100.00;97505.53;5071683;28;19920;-90
2023/08/02 15:09:13;;;;;;;;;;;;;;;7.88;100.00;97500.28;5071758;28;20356;-90
2023/08/02 15:11:39;;;;;;;;;;;;;;;7.93;100.00;97486.75;5068851;28;19955;-89
2023/08/02 15:14:04;;;;;;;;;;;;;;;7.94;100.00;97483.16;5067084;28;20464;-89
2023/08/02 15:16:31;;;;;;;;;;;;;;;7.88;100.00;97486.22;5043847;28;19921;-90
2023/08/02 15:18:57;;;;;;;;;;;;;;;7.82;100.00;97498.88;5072067;28;20029;-89
2023/08/02 15:21:22;;;;;;;;;;;;;;;7.86;100.00;97504.78;5071508;28;19994;-90
2023/08/02 15:23:48;;;;;;;;;;;;;;;8.06;100.00;97502.56;5052150;28;19924;-89
2023/08/02 15:26:13;;;;;;;;;;;;;;;7.88;100.00;97504.69;5045381;28;20418;-89
2023/08/02 15:28:38;;;;;;;;;;;;;;;7.84;100.00;97511.97;5045148;28;20532;-86
2023/08/02 15:31:03;;;;;;;;;;;;;;;7.85;100.00;97512.78;5070108;28;20326;-89
2023/08/02 15:33:29;;;;;;;;;;;;;;;8.00;100.00;97506.47;5045126;28;19925;-90
2023/08/02 15:35:55;;;;;;;;;;;;;;;7.96;100.00;97499.72;5071467;28;19917;-90
2023/08/02 15:38:20;;;;;;;;;;;;;;;7.96;100.00;97507.63;5045947;28;19970;-89
2023/08/02 15:40:46;;;;;;;;;;;;;;;8.07;100.00;97514.81;5045807;28;19917;-89
2023/08/02 15:43:11;;;;;;;;;;;;;;;8.00;100.00;97491.50;5045230;28;19964;-89
2023/08/02 15:45:36;;;;;;;;;;;;;;;7.99;100.00;97502.16;5069348;28;19927;-89
2023/08/02 15:48:02;;;;;;;;;;;;;;;8.02;100.00;97503.75;5071595;28;19971;-89
2023/08/02 15:50:27;;;;;;;;;;;;;;;7.88;100.00;97502.91;5071813;28;19942;-90
2023/08/02 15:52:52;;;;;;;;;;;;;;;7.85;100.00;97496.97;5050762;28;20206;-91
2023/08/02 15:55:20;;;;;;;;;;;;;;;8.02;100.00;97509.03;5046187;28;19986;-90
2023/08/02 15:57:47;;;;;;;;;;;;;;;8.21;100.00;97508.59;5067044;28;20303;-89
2023/08/02 16:00:13;;;;;;;;;;;;;;;7.92;100.00;97512.28;5051383;28;19976;-89
2023/08/02 16:02:38;;;;;;;;;;;;;;;8.04;100.00;97531.72;5071678;28;19954;-90
2023/08/02 16:05:03;;;;;;;;;;;;;;;7.96;100.00;97526.97;5044003;28;20291;-90
2023/08/02 16:07:29;;;;;;;;;;;;;;;8.22;100.00;97528.72;5043701;28;19925;-90
2023/08/02 16:09:54;;;;;;;;;;;;;;;8.04;100.00;97537.00;5070655;28;19920;-89
2023/08/02 16:12:19;;;;;;;;;;;;;;;8.21;100.00;97545.53;5052839;28;20382;-88
2023/08/02 16:14:44;;;;;;;;;;;;;;;8.39;100.00;97528.41;5070288;28;19924;-88
2023/08/02 16:17:10;;;;;;;;;;;;;;;8.35;100.00;97548.06;5067887;28;20418;-88
2023/08/02 16:19:35;;;;;;;;;;;;;;;8.41;100.00;97546.78;5062920;28;20019;-89
2023/08/02 16:22:00;;;;;;;;;;;;;;;8.47;100.00;97557.81;5044997;28;19916;-87
2023/08/02 16:24:27;;;;;;;;;;;;;;;8.72;100.00;97562.19;5044020;28;20269;-90
2023/08/02 16:26:52;;;;;;;;;;;;;;;8.51;100.00;97564.53;5041868;28;20299;-90
2023/08/02 16:29:20;;;;;;;;;;;;;;;8.29;100.00;97566.94;5042310;28;19924;-91
2023/08/02 16:31:45;;;;;;;;;;;;;;;8.14;100.00;97567.06;5042698;28;19920;-91
2023/08/02 16:34:11;;;;;;;;;;;;;;;8.28;100.00;97562.59;5061553;28;20283;-92
2023/08/02 16:36:36;;;;;;;;;;;;;;;8.04;100.00;97570.41;5061624;28;19927;-91
2023/08/02 16:39:01;;;;;;;;;;;;;;;8.26;100.00;97575.91;5056218;28;20029;-89
2023/08/02 16:41:26;;;;;;;;;;;;;;;8.43;100.00;97566.00;5063765;28;20449;-89
2023/08/02 16:43:52;;;;;;;;;;;;;;;8.59;100.00;97571.09;5043460;28;20394;-86
2023/08/02 16:46:17;;;;;;;;;;;;;;;8.30;100.00;97571.28;5059771;28;20025;-92
2023/08/02 16:48:42;;;;;;;;;;;;;;;8.21;100.00;97570.09;5040645;28;19927;-92
2023/08/02 16:51:08;;;;;;;;;;;;;;;8.35;100.00;97575.28;5059823;28;19932;-90
2023/08/02 16:53:34;;;;;;;;;;;;;;;8.36;100.00;97586.69;5039575;28;19987;-94
2023/08/02 16:56:00;;;;;;;;;;;;;;;8.39;100.00;97590.91;5050101;28;20431;-93
2023/08/02 16:58:25;;;;;;;;;;;;;;;8.03;100.00;97590.66;5060289;28;20008;-92
2023/08/02 17:00:50;;;;;;;;;;;;;;;8.45;100.00;97596.63;5055417;28;20604;-90
2023/08/02 17:03:16;;;;;;;;;;;;;;;8.37;100.00;97610.31;5031051;28;19926;-91
2023/08/02 17:05:41;;;;;;;;;;;;;;;8.28;100.00;97602.19;5060013;28;19916;-89
2023/08/02 17:08:06;;;;;;;;;;;;;;;8.52;100.00;97600.56;5030415;28;19937;-90
2023/08/02 17:10:35;;;;;;;;;;;;;;;8.27;100.00;97608.44;5058009;28;20041;-95
2023/08/02 17:13:00;;;;;;;;;;;;;;;8.29;100.00;97594.16;5038543;28;19921;-91
2023/08/02 17:15:25;;;;;;;;;;;;;;;8.61;100.00;97606.13;5041482;28;19917;-92
2023/08/02 17:17:50;;;;;;;;;;;;;;;8.08;100.00;97630.75;5060102;28;19928;-92
2023/08/02 17:20:16;;;;;;;;;;;;;;;8.05;100.00;97630.13;5058062;28;20435;-94
2023/08/02 17:22:41;;;;;;;;;;;;;;;8.36;100.00;97608.66;5063060;28;19917;-93
2023/08/02 17:25:06;;;;;;;;;;;;;;;8.17;100.00;97627.50;5063880;28;20002;-95
2023/08/02 17:27:32;;;;;;;;;;;;;;;8.50;100.00;97628.00;5058070;28;19917;-92
2023/08/02 17:29:57;;;;;;;;;;;;;;;8.34;100.00;97633.44;5040963;28;19959;-94
2023/08/02 17:32:23;;;;;;;;;;;;;;;8.08;100.00;97643.94;5043942;28;19916;-92
2023/08/02 17:34:48;;;;;;;;;;;;;;;8.09;100.00;97645.66;5064847;28;19924;-94
2023/08/02 17:37:15;;;;;;;;;;;;;;;7.95;100.00;97646.56;5069218;28;19916;-94
2023/08/02 17:39:43;;;;;;;;;;;;;;;8.18;100.00;97652.97;5038124;28;19917;-95
2023/08/02 17:42:09;;;;;;;;;;;;;;;8.21;100.00;97656.34;5036232;28;19918;-89
2023/08/02 17:44:34;;;;;;;;;;;;;;;8.31;100.00;97662.66;5016284;28;20286;-93
2023/08/02 17:46:59;;;;;;;;;;;;;;;7.98;100.00;97658.72;5022864;28;19975;-89
2023/08/02 17:49:24;;;;;;;;;;;;;;;8.04;100.00;97654.81;5006637;28;19928;-85
2023/08/02 17:51:50;;;;;;;;;;;;;;;8.16;100.00;97660.09;5024704;28;19923;-90
2023/08/02 17:54:15;;;;;;;;;;;;;;;8.13;100.00;97660.31;5008016;28;19964;-91
2023/08/02 17:56:43;;;;;;;;;;;;;;;8.47;100.00;97666.00;5021021;28;19921;-92
2023/08/02 17:59:10;;;;;;;;;;;;;;;8.31;100.00;97646.84;5034128;28;19913;-95
2023/08/02 18:01:35;;;;;;;;;;;;;;;7.86;100.00;97648.97;5013575;28;20012;-94
2023/08/02 18:04:01;;;;;;;;;;;;;;;7.73;100.00;97662.94;5026397;28;19956;-94
2023/08/02 18:06:26;;;;;;;;;;;;;;;7.98;100.00;97658.72;5028298;28;19917;-95
2023/08/02 18:08:51;;;;;;;;;;;;;;;7.80;100.00;97668.66;5025619;28;19928;-95
2023/08/02 18:11:17;;;;;;;;;;;;;;;7.82;100.00;97672.06;5060139;28;19916;-95
2023/08/02 18:13:43;;;;;;;;;;;;;;;7.99;100.00;97674.44;5069464;28;19921;-93
2023/08/02 18:16:08;;;;;;;;;;;;;;;8.09;100.00;97676.44;5064800;28;20383;-95
2023/08/02 18:18:35;;;;;;;;;;;;;;;8.59;100.00;97676.69;5062316;28;19925;-96
2023/08/02 18:21:01;;;;;;;;;;;;;;;7.89;100.00;97693.59;5051741;28;19917;-96
2023/08/02 18:23:26;;;;;;;;;;;;;;;8.07;100.00;97688.91;5053694;28;19969;-94
2023/08/02 18:25:51;;;;;;;;;;;;;;;7.67;100.00;97704.69;5052921;28;19948;-93
2023/08/02 18:28:17;;;;;;;;;;;;;;;7.62;100.00;97702.31;5074261;28;19917;-93
2023/08/02 18:30:43;;;;;;;;;;;;;;;7.63;100.00;97706.66;5048666;28;19921;-93
2023/08/02 18:33:10;;;;;;;;;;;;;;;7.55;100.00;97706.31;5067787;28;19932;-90
2023/08/02 18:35:36;;;;;;;;;;;;;;;7.53;100.00;97706.41;5055510;28;20298;-91
2023/08/02 18:38:02;;;;;;;;;;;;;;;7.42;100.00;97719.41;5047335;28;19924;-93
2023/08/02 18:40:27;;;;;;;;;;;;;;;7.54;100.00;97709.88;5049904;28;19917;-92
2023/08/02 18:42:53;;;;;;;;;;;;;;;7.63;100.00;97717.22;5064161;28;19927;-90
2023/08/02 18:45:18;;;;;;;;;;;;;;;7.98;100.00;97719.38;5042947;28;19917;-89